sensor_id;sensor_type;location;lat;lon;timestamp;temperature;humidity
37594;DHT22;23441;50.856;6.076;2022-08-21T00:00:00;14.30;99.90
37594;DHT22;23441;50.856;6.076;2022-08-21T00:02:28;14.30;99.90
37594;DHT22;23441;50.856;6.076;2022-08-21T00:04:55;14.30;99.90
37594;DHT22;23441;50.856;6.076;2022-08-21T00:07:21;14.20;99.90
37594;DHT22;23441;50.856;6.076;2022-08-21T00:09:47;14.20;99.90
37594;DHT22;23441;50.856;6.076;2022-08-21T00:12:13;14.20;99.90
37594;DHT22;23441;50.856;6.076;2022-08-21T00:14:39;14.20;99.90
37594;DHT22;23441;50.856;6.076;2022-08-21T00:17:06;14.10;99.90
37594;DHT22;23441;50.856;6.076;2022-08-21T00:19:32;14.10;99.90
37594;DHT22;23441;50.856;6.076;2022-08-21T00:21:59;14.10;99.90
37594;DHT22;23441;50.856;6.076;2022-08-21T00:24:25;14.00;99.90
37594;DHT22;23441;50.856;6.076;2022-08-21T00:26:52;14.00;99.90
37594;DHT22;23441;50.856;6.076;2022-08-21T00:29:18;14.00;99.90
37594;DHT22;23441;50.856;6.076;2022-08-21T00:31:44;14.00;99.90
37594;DHT22;23441;50.856;6.076;2022-08-21T00:34:11;14.00;99.90
37594;DHT22;23441;50.856;6.076;2022-08-21T00:36:38;13.90;99.90
37594;DHT22;23441;50.856;6.076;2022-08-21T00:39:05;13.90;99.90
37594;DHT22;23441;50.856;6.076;2022-08-21T00:41:34;13.90;99.90
37594;DHT22;23441;50.856;6.076;2022-08-21T00:44:03;13.90;99.90
37594;DHT22;23441;50.856;6.076;2022-08-21T00:46:30;13.90;99.90
37594;DHT22;23441;50.856;6.076;2022-08-21T00:48:56;13.90;99.90
37594;DHT22;23441;50.856;6.076;2022-08-21T00:51:27;13.90;99.90
37594;DHT22;23441;50.856;6.076;2022-08-21T00:53:59;13.80;99.90
37594;DHT22;23441;50.856;6.076;2022-08-21T00:56:27;13.80;99.90
37594;DHT22;23441;50.856;6.076;2022-08-21T00:58:56;13.80;99.90
37594;DHT22;23441;50.856;6.076;2022-08-21T01:01:24;13.80;99.90
37594;DHT22;23441;50.856;6.076;2022-08-21T01:03:50;13.80;99.90
37594;DHT22;23441;50.856;6.076;2022-08-21T01:06:16;13.80;99.90
37594;DHT22;23441;50.856;6.076;2022-08-21T01:08:42;13.80;99.90
37594;DHT22;23441;50.856;6.076;2022-08-21T01:11:08;13.70;99.90
37594;DHT22;23441;50.856;6.076;2022-08-21T01:13:37;13.70;99.90
37594;DHT22;23441;50.856;6.076;2022-08-21T01:16:10;13.70;99.90
37594;DHT22;23441;50.856;6.076;2022-08-21T01:18:36;13.70;99.90
37594;DHT22;23441;50.856;6.076;2022-08-21T01:21:15;13.80;99.90
37594;DHT22;23441;50.856;6.076;2022-08-21T01:23:46;13.80;99.90
37594;DHT22;23441;50.856;6.076;2022-08-21T01:26:18;13.70;99.90
37594;DHT22;23441;50.856;6.076;2022-08-21T01:28:57;13.70;99.90
37594;DHT22;23441;50.856;6.076;2022-08-21T01:31:28;13.70;99.90
37594;DHT22;23441;50.856;6.076;2022-08-21T01:33:55;13.60;99.90
37594;DHT22;23441;50.856;6.076;2022-08-21T01:36:22;13.60;99.90
37594;DHT22;23441;50.856;6.076;2022-08-21T01:38:49;13.60;99.90
37594;DHT22;23441;50.856;6.076;2022-08-21T01:41:15;13.60;99.90
37594;DHT22;23441;50.856;6.076;2022-08-21T01:43:42;13.60;99.90
37594;DHT22;23441;50.856;6.076;2022-08-21T01:46:10;13.70;99.90
37594;DHT22;23441;50.856;6.076;2022-08-21T01:48:36;13.60;99.90
37594;DHT22;23441;50.856;6.076;2022-08-21T01:51:03;13.60;99.90
37594;DHT22;23441;50.856;6.076;2022-08-21T01:53:30;13.60;99.90
37594;DHT22;23441;50.856;6.076;2022-08-21T01:55:57;13.50;99.90
37594;DHT22;23441;50.856;6.076;2022-08-21T01:58:23;13.50;99.90
37594;DHT22;23441;50.856;6.076;2022-08-21T02:00:48;13.50;99.90
37594;DHT22;23441;50.856;6.076;2022-08-21T02:03:14;13.60;99.90
37594;DHT22;23441;50.856;6.076;2022-08-21T02:05:40;13.60;99.90
37594;DHT22;23441;50.856;6.076;2022-08-21T02:08:07;13.50;99.90
37594;DHT22;23441;50.856;6.076;2022-08-21T02:10:33;13.60;99.90
37594;DHT22;23441;50.856;6.076;2022-08-21T02:13:00;13.70;99.90
37594;DHT22;23441;50.856;6.076;2022-08-21T02:15:28;13.80;99.90
37594;DHT22;23441;50.856;6.076;2022-08-21T02:17:58;13.90;99.90
37594;DHT22;23441;50.856;6.076;2022-08-21T02:20:29;13.80;99.90
37594;DHT22;23441;50.856;6.076;2022-08-21T02:23:01;13.80;99.90
37594;DHT22;23441;50.856;6.076;2022-08-21T02:25:28;13.70;99.90
37594;DHT22;23441;50.856;6.076;2022-08-21T02:27:56;13.70;99.90
37594;DHT22;23441;50.856;6.076;2022-08-21T02:30:27;13.60;99.90
37594;DHT22;23441;50.856;6.076;2022-08-21T02:32:56;13.60;99.90
37594;DHT22;23441;50.856;6.076;2022-08-21T02:35:23;13.60;99.90
37594;DHT22;23441;50.856;6.076;2022-08-21T02:40:23;13.70;99.90
37594;DHT22;23441;50.856;6.076;2022-08-21T02:42:52;13.60;99.90
37594;DHT22;23441;50.856;6.076;2022-08-21T02:45:19;13.60;99.90
37594;DHT22;23441;50.856;6.076;2022-08-21T02:47:57;13.50;99.90
37594;DHT22;23441;50.856;6.076;2022-08-21T02:50:30;13.50;99.90
37594;DHT22;23441;50.856;6.076;2022-08-21T02:52:57;13.50;99.90
37594;DHT22;23441;50.856;6.076;2022-08-21T02:55:27;13.50;99.90
37594;DHT22;23441;50.856;6.076;2022-08-21T02:57:56;13.40;99.90
37594;DHT22;23441;50.856;6.076;2022-08-21T03:00:25;13.40;99.90
37594;DHT22;23441;50.856;6.076;2022-08-21T03:02:52;13.40;99.90
37594;DHT22;23441;50.856;6.076;2022-08-21T03:05:19;13.40;99.90
37594;DHT22;23441;50.856;6.076;2022-08-21T03:07:46;13.30;99.90
37594;DHT22;23441;50.856;6.076;2022-08-21T03:10:14;13.30;99.90
37594;DHT22;23441;50.856;6.076;2022-08-21T03:12:40;13.20;99.90
37594;DHT22;23441;50.856;6.076;2022-08-21T03:15:10;13.20;99.90
37594;DHT22;23441;50.856;6.076;2022-08-21T03:17:37;13.20;99.90
37594;DHT22;23441;50.856;6.076;2022-08-21T03:20:05;13.20;99.90
37594;DHT22;23441;50.856;6.076;2022-08-21T03:22:32;13.20;99.90
37594;DHT22;23441;50.856;6.076;2022-08-21T03:24:59;13.20;99.90
37594;DHT22;23441;50.856;6.076;2022-08-21T03:27:26;13.20;99.90
37594;DHT22;23441;50.856;6.076;2022-08-21T03:29:54;13.20;99.90
37594;DHT22;23441;50.856;6.076;2022-08-21T03:32:20;13.10;99.90
37594;DHT22;23441;50.856;6.076;2022-08-21T03:34:46;13.10;99.90
37594;DHT22;23441;50.856;6.076;2022-08-21T03:37:13;13.10;99.90
37594;DHT22;23441;50.856;6.076;2022-08-21T03:39:40;13.10;99.90
37594;DHT22;23441;50.856;6.076;2022-08-21T03:42:07;13.10;99.90
37594;DHT22;23441;50.856;6.076;2022-08-21T03:44:34;13.00;99.90
37594;DHT22;23441;50.856;6.076;2022-08-21T03:47:01;13.00;99.90
37594;DHT22;23441;50.856;6.076;2022-08-21T03:49:27;13.00;99.90
37594;DHT22;23441;50.856;6.076;2022-08-21T03:51:54;13.00;99.90
37594;DHT22;23441;50.856;6.076;2022-08-21T03:54:20;13.10;99.90
37594;DHT22;23441;50.856;6.076;2022-08-21T03:56:46;13.00;99.90
37594;DHT22;23441;50.856;6.076;2022-08-21T03:59:12;13.00;99.90
37594;DHT22;23441;50.856;6.076;2022-08-21T04:01:38;13.00;99.90
37594;DHT22;23441;50.856;6.076;2022-08-21T04:04:05;12.90;99.90
37594;DHT22;23441;50.856;6.076;2022-08-21T04:06:32;12.90;99.90
37594;DHT22;23441;50.856;6.076;2022-08-21T04:08:58;12.90;99.90
37594;DHT22;23441;50.856;6.076;2022-08-21T04:11:24;12.90;99.90
37594;DHT22;23441;50.856;6.076;2022-08-21T04:13:49;12.90;99.90
37594;DHT22;23441;50.856;6.076;2022-08-21T04:16:15;12.80;99.90
37594;DHT22;23441;50.856;6.076;2022-08-21T04:18:42;12.80;99.90
37594;DHT22;23441;50.856;6.076;2022-08-21T04:21:10;12.90;99.90
37594;DHT22;23441;50.856;6.076;2022-08-21T04:23:37;12.80;99.90
37594;DHT22;23441;50.856;6.076;2022-08-21T04:26:03;12.80;99.90
37594;DHT22;23441;50.856;6.076;2022-08-21T04:28:29;12.80;99.90
37594;DHT22;23441;50.856;6.076;2022-08-21T04:30:55;12.80;99.90
37594;DHT22;23441;50.856;6.076;2022-08-21T04:33:21;12.80;99.90
37594;DHT22;23441;50.856;6.076;2022-08-21T04:35:48;12.80;99.90
37594;DHT22;23441;50.856;6.076;2022-08-21T04:38:15;12.80;99.90
37594;DHT22;23441;50.856;6.076;2022-08-21T04:40:41;12.80;99.90
37594;DHT22;23441;50.856;6.076;2022-08-21T04:43:09;12.80;99.90
37594;DHT22;23441;50.856;6.076;2022-08-21T04:45:40;12.80;99.90
37594;DHT22;23441;50.856;6.076;2022-08-21T04:48:09;12.80;99.90
37594;DHT22;23441;50.856;6.076;2022-08-21T04:50:42;12.70;99.90
37594;DHT22;23441;50.856;6.076;2022-08-21T04:53:20;12.70;99.90
37594;DHT22;23441;50.856;6.076;2022-08-21T04:55:48;12.70;99.90
37594;DHT22;23441;50.856;6.076;2022-08-21T04:58:17;12.70;99.90
37594;DHT22;23441;50.856;6.076;2022-08-21T05:00:46;12.70;99.90
37594;DHT22;23441;50.856;6.076;2022-08-21T05:03:14;12.80;99.90
37594;DHT22;23441;50.856;6.076;2022-08-21T05:05:42;12.80;99.90
37594;DHT22;23441;50.856;6.076;2022-08-21T05:08:12;12.80;99.90
37594;DHT22;23441;50.856;6.076;2022-08-21T05:10:40;12.90;99.90
37594;DHT22;23441;50.856;6.076;2022-08-21T05:13:07;13.00;99.90
37594;DHT22;23441;50.856;6.076;2022-08-21T05:15:33;13.10;99.90
37594;DHT22;23441;50.856;6.076;2022-08-21T05:17:59;13.20;99.90
37594;DHT22;23441;50.856;6.076;2022-08-21T05:20:25;13.30;99.90
37594;DHT22;23441;50.856;6.076;2022-08-21T05:22:51;13.40;99.90
37594;DHT22;23441;50.856;6.076;2022-08-21T05:25:17;13.40;99.90
37594;DHT22;23441;50.856;6.076;2022-08-21T05:27:43;13.50;99.90
37594;DHT22;23441;50.856;6.076;2022-08-21T05:30:09;13.50;99.90
37594;DHT22;23441;50.856;6.076;2022-08-21T05:32:36;13.60;99.90
37594;DHT22;23441;50.856;6.076;2022-08-21T05:35:06;13.60;99.90
37594;DHT22;23441;50.856;6.076;2022-08-21T05:37:34;13.60;99.90
37594;DHT22;23441;50.856;6.076;2022-08-21T05:40:00;13.70;99.90
37594;DHT22;23441;50.856;6.076;2022-08-21T05:42:27;13.70;99.90
37594;DHT22;23441;50.856;6.076;2022-08-21T05:44:53;13.90;99.90
37594;DHT22;23441;50.856;6.076;2022-08-21T05:47:19;13.90;99.90
37594;DHT22;23441;50.856;6.076;2022-08-21T05:49:45;14.00;99.90
37594;DHT22;23441;50.856;6.076;2022-08-21T05:52:11;14.00;99.90
37594;DHT22;23441;50.856;6.076;2022-08-21T05:54:37;14.10;99.90
37594;DHT22;23441;50.856;6.076;2022-08-21T05:57:03;14.20;99.90
37594;DHT22;23441;50.856;6.076;2022-08-21T05:59:29;14.30;99.90
37594;DHT22;23441;50.856;6.076;2022-08-21T06:01:55;14.40;99.90
37594;DHT22;23441;50.856;6.076;2022-08-21T06:04:22;14.40;99.90
37594;DHT22;23441;50.856;6.076;2022-08-21T06:06:47;14.50;99.90
37594;DHT22;23441;50.856;6.076;2022-08-21T06:09:13;14.60;99.90
37594;DHT22;23441;50.856;6.076;2022-08-21T06:11:39;14.70;99.90
37594;DHT22;23441;50.856;6.076;2022-08-21T06:14:05;14.80;99.90
37594;DHT22;23441;50.856;6.076;2022-08-21T06:16:32;14.80;99.90
37594;DHT22;23441;50.856;6.076;2022-08-21T06:18:58;14.90;99.90
37594;DHT22;23441;50.856;6.076;2022-08-21T06:21:24;15.00;99.90
37594;DHT22;23441;50.856;6.076;2022-08-21T06:23:50;15.10;99.90
37594;DHT22;23441;50.856;6.076;2022-08-21T06:26:16;15.20;99.90
37594;DHT22;23441;50.856;6.076;2022-08-21T06:28:42;15.30;99.90
37594;DHT22;23441;50.856;6.076;2022-08-21T06:31:21;15.40;99.90
37594;DHT22;23441;50.856;6.076;2022-08-21T06:33:50;15.50;99.90
37594;DHT22;23441;50.856;6.076;2022-08-21T06:36:16;15.70;99.90
37594;DHT22;23441;50.856;6.076;2022-08-21T06:38:42;15.90;99.90
37594;DHT22;23441;50.856;6.076;2022-08-21T06:41:09;16.40;99.90
37594;DHT22;23441;50.856;6.076;2022-08-21T06:43:36;17.10;99.90
37594;DHT22;23441;50.856;6.076;2022-08-21T06:46:01;17.80;99.90
37594;DHT22;23441;50.856;6.076;2022-08-21T06:48:27;18.60;99.90
37594;DHT22;23441;50.856;6.076;2022-08-21T06:50:55;19.10;99.90
37594;DHT22;23441;50.856;6.076;2022-08-21T06:53:21;19.30;99.90
37594;DHT22;23441;50.856;6.076;2022-08-21T06:55:48;19.20;99.90
37594;DHT22;23441;50.856;6.076;2022-08-21T06:58:14;18.90;99.90
37594;DHT22;23441;50.856;6.076;2022-08-21T07:00:44;18.80;99.90
37594;DHT22;23441;50.856;6.076;2022-08-21T07:03:25;19.20;99.90
37594;DHT22;23441;50.856;6.076;2022-08-21T07:05:58;19.70;99.90
37594;DHT22;23441;50.856;6.076;2022-08-21T07:08:25;19.60;99.90
37594;DHT22;23441;50.856;6.076;2022-08-21T07:10:55;19.20;99.90
37594;DHT22;23441;50.856;6.076;2022-08-21T07:13:23;19.20;99.90
37594;DHT22;23441;50.856;6.076;2022-08-21T07:15:49;18.80;99.90
37594;DHT22;23441;50.856;6.076;2022-08-21T07:18:16;18.60;99.90
37594;DHT22;23441;50.856;6.076;2022-08-21T07:20:42;18.50;99.90
37594;DHT22;23441;50.856;6.076;2022-08-21T07:23:30;18.40;99.90
37594;DHT22;23441;50.856;6.076;2022-08-21T07:25:58;18.20;99.90
37594;DHT22;23441;50.856;6.076;2022-08-21T07:28:27;18.10;99.90
37594;DHT22;23441;50.856;6.076;2022-08-21T07:30:55;18.00;99.90
37594;DHT22;23441;50.856;6.076;2022-08-21T07:33:23;17.90;99.90
37594;DHT22;23441;50.856;6.076;2022-08-21T07:35:49;17.80;99.90
37594;DHT22;23441;50.856;6.076;2022-08-21T07:38:16;17.70;99.90
37594;DHT22;23441;50.856;6.076;2022-08-21T07:40:42;17.70;99.90
37594;DHT22;23441;50.856;6.076;2022-08-21T07:43:08;17.70;99.90
37594;DHT22;23441;50.856;6.076;2022-08-21T07:45:34;18.00;99.90
37594;DHT22;23441;50.856;6.076;2022-08-21T07:48:00;18.30;99.90
37594;DHT22;23441;50.856;6.076;2022-08-21T07:50:26;18.40;99.90
37594;DHT22;23441;50.856;6.076;2022-08-21T07:52:52;18.40;99.90
37594;DHT22;23441;50.856;6.076;2022-08-21T07:55:20;18.50;99.90
37594;DHT22;23441;50.856;6.076;2022-08-21T07:57:47;18.50;99.90
37594;DHT22;23441;50.856;6.076;2022-08-21T08:00:17;18.60;99.90
37594;DHT22;23441;50.856;6.076;2022-08-21T08:02:47;18.60;99.90
37594;DHT22;23441;50.856;6.076;2022-08-21T08:05:19;18.60;99.90
37594;DHT22;23441;50.856;6.076;2022-08-21T08:07:47;18.60;99.90
37594;DHT22;23441;50.856;6.076;2022-08-21T08:10:14;18.60;99.90
37594;DHT22;23441;50.856;6.076;2022-08-21T08:12:42;18.60;99.90
37594;DHT22;23441;50.856;6.076;2022-08-21T08:15:12;18.60;99.90
37594;DHT22;23441;50.856;6.076;2022-08-21T08:17:42;18.70;99.90
37594;DHT22;23441;50.856;6.076;2022-08-21T08:20:11;18.70;99.90
37594;DHT22;23441;50.856;6.076;2022-08-21T08:22:39;18.80;99.90
37594;DHT22;23441;50.856;6.076;2022-08-21T08:25:08;18.90;99.90
37594;DHT22;23441;50.856;6.076;2022-08-21T08:27:36;19.00;99.90
37594;DHT22;23441;50.856;6.076;2022-08-21T08:30:04;19.00;99.90
37594;DHT22;23441;50.856;6.076;2022-08-21T08:32:31;19.00;99.90
37594;DHT22;23441;50.856;6.076;2022-08-21T08:34:57;19.10;99.90
37594;DHT22;23441;50.856;6.076;2022-08-21T08:37:23;19.20;99.90
37594;DHT22;23441;50.856;6.076;2022-08-21T08:39:49;19.20;99.90
37594;DHT22;23441;50.856;6.076;2022-08-21T08:42:29;19.10;99.90
37594;DHT22;23441;50.856;6.076;2022-08-21T08:45:06;19.10;99.90
37594;DHT22;23441;50.856;6.076;2022-08-21T08:47:36;19.10;99.90
37594;DHT22;23441;50.856;6.076;2022-08-21T08:52:57;19.20;99.90
37594;DHT22;23441;50.856;6.076;2022-08-21T08:55:35;19.40;99.90
37594;DHT22;23441;50.856;6.076;2022-08-21T08:58:03;19.50;99.90
37594;DHT22;23441;50.856;6.076;2022-08-21T09:00:30;19.60;99.90
37594;DHT22;23441;50.856;6.076;2022-08-21T09:02:58;19.80;99.90
37594;DHT22;23441;50.856;6.076;2022-08-21T09:05:28;20.30;99.90
37594;DHT22;23441;50.856;6.076;2022-08-21T09:08:14;21.10;99.90
37594;DHT22;23441;50.856;6.076;2022-08-21T09:13:54;21.70;99.90
37594;DHT22;23441;50.856;6.076;2022-08-21T09:17:01;21.70;99.90
37594;DHT22;23441;50.856;6.076;2022-08-21T09:22:28;21.40;99.90
37594;DHT22;23441;50.856;6.076;2022-08-21T09:25:21;21.30;99.90
37594;DHT22;23441;50.856;6.076;2022-08-21T09:27:50;21.20;99.90
37594;DHT22;23441;50.856;6.076;2022-08-21T09:30:17;21.20;99.90
37594;DHT22;23441;50.856;6.076;2022-08-21T09:32:45;21.40;99.90
37594;DHT22;23441;50.856;6.076;2022-08-21T09:35:12;21.40;99.90
37594;DHT22;23441;50.856;6.076;2022-08-21T09:38:00;21.40;99.90
37594;DHT22;23441;50.856;6.076;2022-08-21T09:40:39;21.50;99.90
37594;DHT22;23441;50.856;6.076;2022-08-21T09:45:41;21.40;99.90
37594;DHT22;23441;50.856;6.076;2022-08-21T09:48:19;21.30;99.90
37594;DHT22;23441;50.856;6.076;2022-08-21T09:50:52;21.30;99.90
37594;DHT22;23441;50.856;6.076;2022-08-21T09:53:25;21.20;99.90
37594;DHT22;23441;50.856;6.076;2022-08-21T09:55:58;21.10;99.90
37594;DHT22;23441;50.856;6.076;2022-08-21T09:58:47;21.00;99.90
37594;DHT22;23441;50.856;6.076;2022-08-21T10:01:25;20.90;99.90
37594;DHT22;23441;50.856;6.076;2022-08-21T10:04:10;20.90;99.90
37594;DHT22;23441;50.856;6.076;2022-08-21T10:06:37;21.10;99.90
37594;DHT22;23441;50.856;6.076;2022-08-21T10:09:10;21.10;99.90
37594;DHT22;23441;50.856;6.076;2022-08-21T10:11:52;21.10;99.90
37594;DHT22;23441;50.856;6.076;2022-08-21T10:18:08;21.40;99.90
37594;DHT22;23441;50.856;6.076;2022-08-21T10:21:08;21.50;99.90
37594;DHT22;23441;50.856;6.076;2022-08-21T10:24:37;21.50;99.90
37594;DHT22;23441;50.856;6.076;2022-08-21T10:30:21;21.90;99.90
37594;DHT22;23441;50.856;6.076;2022-08-21T10:36:16;21.90;99.90
37594;DHT22;23441;50.856;6.076;2022-08-21T10:42:02;22.00;99.90
37594;DHT22;23441;50.856;6.076;2022-08-21T10:47:28;22.10;99.90
37594;DHT22;23441;50.856;6.076;2022-08-21T10:52:55;22.10;99.90
37594;DHT22;23441;50.856;6.076;2022-08-21T10:55:36;22.20;99.90
37594;DHT22;23441;50.856;6.076;2022-08-21T10:58:12;22.20;99.90
37594;DHT22;23441;50.856;6.076;2022-08-21T11:00:46;22.10;99.90
37594;DHT22;23441;50.856;6.076;2022-08-21T11:03:42;22.20;99.90
37594;DHT22;23441;50.856;6.076;2022-08-21T11:06:30;22.50;99.90
37594;DHT22;23441;50.856;6.076;2022-08-21T11:09:14;23.30;99.90
37594;DHT22;23441;50.856;6.076;2022-08-21T11:11:50;23.90;97.60
37594;DHT22;23441;50.856;6.076;2022-08-21T11:17:13;24.30;96.50
37594;DHT22;23441;50.856;6.076;2022-08-21T11:20:15;24.50;95.50
37594;DHT22;23441;50.856;6.076;2022-08-21T11:23:10;24.50;96.20
37594;DHT22;23441;50.856;6.076;2022-08-21T11:25:49;24.30;96.50
37594;DHT22;23441;50.856;6.076;2022-08-21T11:28:26;24.50;97.60
37594;DHT22;23441;50.856;6.076;2022-08-21T11:42:55;24.80;95.20
37594;DHT22;23441;50.856;6.076;2022-08-21T11:48:31;24.00;93.40
37594;DHT22;23441;50.856;6.076;2022-08-21T11:51:20;24.00;95.50
37594;DHT22;23441;50.856;6.076;2022-08-21T11:56:36;24.10;96.50
37594;DHT22;23441;50.856;6.076;2022-08-21T11:59:10;24.40;95.90
37594;DHT22;23441;50.856;6.076;2022-08-21T12:01:41;24.10;92.70
37594;DHT22;23441;50.856;6.076;2022-08-21T12:04:28;24.20;94.00
37594;DHT22;23441;50.856;6.076;2022-08-21T12:06:56;23.90;92.30
37594;DHT22;23441;50.856;6.076;2022-08-21T12:09:36;23.90;93.10
37594;DHT22;23441;50.856;6.076;2022-08-21T12:12:32;24.20;94.20
37594;DHT22;23441;50.856;6.076;2022-08-21T12:18:04;25.00;91.90
37594;DHT22;23441;50.856;6.076;2022-08-21T12:20:45;24.90;93.00
37594;DHT22;23441;50.856;6.076;2022-08-21T12:23:27;25.10;93.40
37594;DHT22;23441;50.856;6.076;2022-08-21T12:26:24;25.20;92.60
37594;DHT22;23441;50.856;6.076;2022-08-21T12:29:27;25.20;91.70
37594;DHT22;23441;50.856;6.076;2022-08-21T12:35:02;25.40;91.30
37594;DHT22;23441;50.856;6.076;2022-08-21T12:37:48;25.50;92.90
37594;DHT22;23441;50.856;6.076;2022-08-21T12:42:57;25.50;92.00
37594;DHT22;23441;50.856;6.076;2022-08-21T12:45:46;25.60;91.10
37594;DHT22;23441;50.856;6.076;2022-08-21T12:48:58;25.20;91.90
37594;DHT22;23441;50.856;6.076;2022-08-21T12:53:50;25.40;91.00
37594;DHT22;23441;50.856;6.076;2022-08-21T12:56:21;25.30;90.40
37594;DHT22;23441;50.856;6.076;2022-08-21T12:58:54;25.20;90.40
37594;DHT22;23441;50.856;6.076;2022-08-21T13:01:33;25.40;90.70
37594;DHT22;23441;50.856;6.076;2022-08-21T13:04:07;25.50;90.20
37594;DHT22;23441;50.856;6.076;2022-08-21T13:06:41;25.80;89.00
37594;DHT22;23441;50.856;6.076;2022-08-21T13:09:15;26.00;89.50
37594;DHT22;23441;50.856;6.076;2022-08-21T13:11:45;25.80;86.90
37594;DHT22;23441;50.856;6.076;2022-08-21T13:14:35;26.30;91.50
37594;DHT22;23441;50.856;6.076;2022-08-21T13:17:05;26.20;84.90
37594;DHT22;23441;50.856;6.076;2022-08-21T13:19:32;26.20;85.90
37594;DHT22;23441;50.856;6.076;2022-08-21T13:22:00;26.40;86.10
37594;DHT22;23441;50.856;6.076;2022-08-21T13:24:32;26.10;85.40
37594;DHT22;23441;50.856;6.076;2022-08-21T13:27:01;26.20;90.30
37594;DHT22;23441;50.856;6.076;2022-08-21T13:29:30;26.10;87.70
37594;DHT22;23441;50.856;6.076;2022-08-21T13:32:02;25.60;85.40
37594;DHT22;23441;50.856;6.076;2022-08-21T13:34:34;25.50;88.50
37594;DHT22;23441;50.856;6.076;2022-08-21T13:37:05;25.20;87.50
37594;DHT22;23441;50.856;6.076;2022-08-21T13:39:33;24.80;88.90
37594;DHT22;23441;50.856;6.076;2022-08-21T13:42:02;24.20;89.60
37594;DHT22;23441;50.856;6.076;2022-08-21T13:44:39;24.30;88.90
37594;DHT22;23441;50.856;6.076;2022-08-21T13:47:10;24.50;90.10
37594;DHT22;23441;50.856;6.076;2022-08-21T13:49:40;24.60;88.60
37594;DHT22;23441;50.856;6.076;2022-08-21T13:52:21;24.50;88.60
37594;DHT22;23441;50.856;6.076;2022-08-21T13:55:11;24.40;88.90
37594;DHT22;23441;50.856;6.076;2022-08-21T13:57:38;24.00;88.20
37594;DHT22;23441;50.856;6.076;2022-08-21T14:02:47;23.90;90.10
37594;DHT22;23441;50.856;6.076;2022-08-21T14:05:32;23.90;90.30
37594;DHT22;23441;50.856;6.076;2022-08-21T14:08:18;24.00;90.20
37594;DHT22;23441;50.856;6.076;2022-08-21T14:11:04;24.20;90.00
37594;DHT22;23441;50.856;6.076;2022-08-21T14:13:44;24.40;90.70
37594;DHT22;23441;50.856;6.076;2022-08-21T14:16:24;24.40;92.10
37594;DHT22;23441;50.856;6.076;2022-08-21T14:21:31;24.20;87.80
37594;DHT22;23441;50.856;6.076;2022-08-21T14:26:53;24.50;89.20
37594;DHT22;23441;50.856;6.076;2022-08-21T14:29:28;24.70;88.20
37594;DHT22;23441;50.856;6.076;2022-08-21T14:32:00;24.80;90.00
37594;DHT22;23441;50.856;6.076;2022-08-21T14:34:35;24.90;88.00
37594;DHT22;23441;50.856;6.076;2022-08-21T14:37:01;25.20;90.80
37594;DHT22;23441;50.856;6.076;2022-08-21T14:39:27;25.50;87.20
37594;DHT22;23441;50.856;6.076;2022-08-21T14:41:53;25.50;87.70
37594;DHT22;23441;50.856;6.076;2022-08-21T14:44:20;25.40;85.60
37594;DHT22;23441;50.856;6.076;2022-08-21T14:46:47;25.60;87.70
37594;DHT22;23441;50.856;6.076;2022-08-21T14:49:13;25.30;86.80
37594;DHT22;23441;50.856;6.076;2022-08-21T14:51:39;25.40;87.80
37594;DHT22;23441;50.856;6.076;2022-08-21T14:54:06;25.50;83.40
37594;DHT22;23441;50.856;6.076;2022-08-21T14:56:34;25.60;81.80
37594;DHT22;23441;50.856;6.076;2022-08-21T14:59:08;25.50;83.00
37594;DHT22;23441;50.856;6.076;2022-08-21T15:01:44;25.70;83.60
37594;DHT22;23441;50.856;6.076;2022-08-21T15:04:10;25.60;84.00
37594;DHT22;23441;50.856;6.076;2022-08-21T15:06:36;25.50;81.50
37594;DHT22;23441;50.856;6.076;2022-08-21T15:09:03;25.30;82.10
37594;DHT22;23441;50.856;6.076;2022-08-21T15:11:32;25.30;82.50
37594;DHT22;23441;50.856;6.076;2022-08-21T15:14:03;24.90;83.60
37594;DHT22;23441;50.856;6.076;2022-08-21T15:16:33;24.80;84.00
37594;DHT22;23441;50.856;6.076;2022-08-21T15:18:59;24.60;84.80
37594;DHT22;23441;50.856;6.076;2022-08-21T15:21:25;24.50;82.90
37594;DHT22;23441;50.856;6.076;2022-08-21T15:23:52;24.40;83.80
37594;DHT22;23441;50.856;6.076;2022-08-21T15:26:21;24.40;84.60
37594;DHT22;23441;50.856;6.076;2022-08-21T15:28:48;24.10;86.00
37594;DHT22;23441;50.856;6.076;2022-08-21T15:31:14;24.10;86.30
37594;DHT22;23441;50.856;6.076;2022-08-21T15:33:41;24.30;87.40
37594;DHT22;23441;50.856;6.076;2022-08-21T15:36:07;24.30;86.30
37594;DHT22;23441;50.856;6.076;2022-08-21T15:38:33;24.30;87.10
37594;DHT22;23441;50.856;6.076;2022-08-21T15:40:59;24.40;85.30
37594;DHT22;23441;50.856;6.076;2022-08-21T15:43:30;24.40;86.50
37594;DHT22;23441;50.856;6.076;2022-08-21T15:46:01;24.40;88.60
37594;DHT22;23441;50.856;6.076;2022-08-21T15:48:28;24.40;84.80
37594;DHT22;23441;50.856;6.076;2022-08-21T15:50:54;24.40;87.80
37594;DHT22;23441;50.856;6.076;2022-08-21T15:53:21;24.30;86.00
37594;DHT22;23441;50.856;6.076;2022-08-21T15:55:47;24.40;88.70
37594;DHT22;23441;50.856;6.076;2022-08-21T15:58:15;24.50;86.60
37594;DHT22;23441;50.856;6.076;2022-08-21T16:00:42;24.50;87.10
37594;DHT22;23441;50.856;6.076;2022-08-21T16:03:12;24.20;85.20
37594;DHT22;23441;50.856;6.076;2022-08-21T16:05:43;24.10;85.80
37594;DHT22;23441;50.856;6.076;2022-08-21T16:08:10;24.00;87.30
37594;DHT22;23441;50.856;6.076;2022-08-21T16:10:37;23.80;89.50
37594;DHT22;23441;50.856;6.076;2022-08-21T16:13:11;23.70;87.80
37594;DHT22;23441;50.856;6.076;2022-08-21T16:15:40;23.60;86.90
37594;DHT22;23441;50.856;6.076;2022-08-21T16:18:06;23.70;88.00
37594;DHT22;23441;50.856;6.076;2022-08-21T16:20:32;23.50;88.50
37594;DHT22;23441;50.856;6.076;2022-08-21T16:22:58;23.60;88.10
37594;DHT22;23441;50.856;6.076;2022-08-21T16:25:25;23.70;89.00
37594;DHT22;23441;50.856;6.076;2022-08-21T16:27:55;23.60;88.80
37594;DHT22;23441;50.856;6.076;2022-08-21T16:30:23;23.60;90.20
37594;DHT22;23441;50.856;6.076;2022-08-21T16:32:50;23.60;89.00
37594;DHT22;23441;50.856;6.076;2022-08-21T16:35:19;23.60;88.60
37594;DHT22;23441;50.856;6.076;2022-08-21T16:37:46;23.50;90.00
37594;DHT22;23441;50.856;6.076;2022-08-21T16:40:13;23.40;88.80
37594;DHT22;23441;50.856;6.076;2022-08-21T16:42:41;23.20;90.70
37594;DHT22;23441;50.856;6.076;2022-08-21T16:45:12;23.10;90.40
37594;DHT22;23441;50.856;6.076;2022-08-21T16:47:40;23.10;90.40
37594;DHT22;23441;50.856;6.076;2022-08-21T16:50:07;23.10;90.70
37594;DHT22;23441;50.856;6.076;2022-08-21T16:52:34;23.00;90.90
37594;DHT22;23441;50.856;6.076;2022-08-21T16:55:00;23.00;91.20
37594;DHT22;23441;50.856;6.076;2022-08-21T16:57:27;22.90;92.00
37594;DHT22;23441;50.856;6.076;2022-08-21T16:59:53;22.80;91.80
37594;DHT22;23441;50.856;6.076;2022-08-21T17:02:30;22.90;92.40